Time;durP1;ratioP1;P1;durP2;ratioP2;P2;SDS_P1;SDS_P2;PMS_P1;PMS_P2;Temp;Humidity;BMP_temperature;BMP_pressure;BME280_temperature;BME280_humidity;BME280_pressure;Samples;Min_cycle;Max_cycle;Signal;HPM_P1;HPM_P2
2022/05/02 00:00:59;;;;;;;20.07;17.90;;;;;;;9.12;100.00;96455.81;5053175;27;105552;-69
2022/05/02 00:03:27;;;;;;;21.47;17.60;;;;;;;9.02;100.00;96457.44;5052568;27;105797;-69
2022/05/02 00:05:55;;;;;;;21.40;18.27;;;;;;;8.90;100.00;96452.19;5053271;27;101978;-69
2022/05/02 00:08:22;;;;;;;20.37;16.77;;;;;;;8.85;100.00;96451.31;5053180;27;105172;-69
2022/05/02 00:10:50;;;;;;;20.87;18.37;;;;;;;8.78;100.00;96456.75;5055868;27;101994;-68
2022/05/02 00:13:17;;;;;;;22.10;18.83;;;;;;;8.76;100.00;96447.41;5052054;27;104141;-69
2022/05/02 00:15:46;;;;;;;20.73;18.27;;;;;;;8.77;100.00;96451.72;5052422;27;105929;-68
2022/05/02 00:18:14;;;;;;;18.30;16.30;;;;;;;8.76;100.00;96448.25;5052890;27;101980;-69
2022/05/02 00:20:42;;;;;;;19.13;16.57;;;;;;;8.75;100.00;96446.63;5052546;27;105136;-69
2022/05/02 00:23:11;;;;;;;21.10;17.90;;;;;;;8.82;100.00;96441.97;5052298;27;105733;-69
2022/05/02 00:25:39;;;;;;;21.23;18.93;;;;;;;8.78;100.00;96437.41;5069598;27;102314;-69
2022/05/02 00:28:07;;;;;;;21.53;19.27;;;;;;;8.67;100.00;96436.41;5071206;27;102294;-69
2022/05/02 00:30:34;;;;;;;23.57;20.53;;;;;;;8.69;100.00;96429.03;5072810;27;105579;-69
2022/05/02 00:33:01;;;;;;;21.13;18.63;;;;;;;8.65;100.00;96429.72;5052417;27;105309;-69
2022/05/02 00:35:31;;;;;;;24.13;20.17;;;;;;;8.62;100.00;96422.25;5052300;27;105403;-69
2022/05/02 00:37:58;;;;;;;24.00;20.30;;;;;;;8.64;100.00;96422.81;5071040;27;101791;-69
2022/05/02 00:40:26;;;;;;;24.10;21.50;;;;;;;8.60;100.00;96424.31;5052656;27;105187;-69
2022/05/02 00:42:53;;;;;;;21.03;18.77;;;;;;;8.49;100.00;96415.38;5052026;27;105773;-69
2022/05/02 00:45:21;;;;;;;21.10;18.50;;;;;;;8.46;100.00;96417.72;5069200;27;102278;-69
2022/05/02 00:47:53;;;;;;;21.27;18.90;;;;;;;8.45;100.00;96416.09;5052532;27;105751;-69
2022/05/02 00:50:34;;;;;;;20.47;16.90;;;;;;;8.48;100.00;96418.28;5051816;27;105652;-69
2022/05/02 00:53:02;;;;;;;22.40;17.60;;;;;;;8.42;100.00;96411.25;5055837;27;101940;-69
2022/05/02 00:55:31;;;;;;;23.43;18.80;;;;;;;8.46;100.00;96415.06;5051853;27;105765;-69
2022/05/02 00:57:59;;;;;;;21.17;18.80;;;;;;;8.43;100.00;96413.69;5052235;27;101855;-69
2022/05/02 01:00:26;;;;;;;21.60;18.57;;;;;;;8.38;100.00;96412.78;5070793;27;102427;-69
2022/05/02 01:02:54;;;;;;;18.93;16.93;;;;;;;8.33;100.00;96407.38;5068825;27;105704;-69
2022/05/02 01:05:21;;;;;;;17.93;16.07;;;;;;;8.28;100.00;96412.59;5052217;27;101996;-69
2022/05/02 01:07:49;;;;;;;17.37;15.57;;;;;;;8.26;100.00;96406.72;5069320;27;105710;-69
2022/05/02 01:10:18;;;;;;;16.07;14.40;;;;;;;8.16;100.00;96411.78;5069851;27;103116;-69
2022/05/02 01:12:46;;;;;;;14.70;13.20;;;;;;;8.00;100.00;96401.91;5052459;27;102392;-69
2022/05/02 01:15:16;;;;;;;15.80;14.07;;;;;;;7.98;100.00;96409.28;5073407;27;101806;-69
2022/05/02 01:17:43;;;;;;;15.53;13.83;;;;;;;7.94;100.00;96394.91;5051971;27;102205;-69
2022/05/02 01:20:14;;;;;;;13.70;12.30;;;;;;;7.79;100.00;96398.03;5051701;27;105615;-69
2022/05/02 01:22:42;;;;;;;14.43;12.93;;;;;;;7.54;100.00;96394.03;5051124;27;104409;-69
2022/05/02 01:25:10;;;;;;;12.93;11.63;;;;;;;7.45;100.00;96400.69;5051943;27;102064;-69
2022/05/02 01:27:37;;;;;;;13.70;12.30;;;;;;;7.48;100.00;96398.41;5068952;27;105168;-69
2022/05/02 01:30:06;;;;;;;17.57;14.50;;;;;;;7.50;100.00;96398.16;5069751;27;102728;-69
2022/05/02 01:32:33;;;;;;;15.67;14.03;;;;;;;7.31;100.00;96392.19;5051851;27;101794;-69
2022/05/02 01:35:00;;;;;;;15.10;13.03;;;;;;;7.30;100.00;96395.88;5051740;27;105040;-69
2022/05/02 01:37:29;;;;;;;12.90;11.60;;;;;;;7.26;100.00;96394.72;5054849;27;105348;-69
2022/05/02 01:39:56;;;;;;;12.97;11.67;;;;;;;7.40;100.00;96390.00;5068844;27;104102;-69
2022/05/02 01:42:23;;;;;;;13.00;11.67;;;;;;;7.29;100.00;96391.63;5068126;27;104980;-69
2022/05/02 01:44:51;;;;;;;12.70;11.50;;;;;;;7.24;100.00;96388.84;5051403;27;101955;-69
2022/05/02 01:47:19;;;;;;;12.73;11.53;;;;;;;7.26;100.00;96391.28;5051591;27;104469;-69
2022/05/02 01:49:46;;;;;;;11.50;10.50;;;;;;;7.22;100.00;96390.94;5051308;27;104112;-69
2022/05/02 01:52:13;;;;;;;11.93;10.83;;;;;;;7.18;100.00;96388.97;5051597;27;102011;-69
2022/05/02 01:54:42;;;;;;;13.13;11.87;;;;;;;7.17;100.00;96387.34;5068447;27;105695;-69
2022/05/02 01:57:10;;;;;;;14.00;12.63;;;;;;;7.14;100.00;96393.13;5050855;27;106032;-69
2022/05/02 01:59:37;;;;;;;13.70;12.40;;;;;;;7.15;100.00;96390.22;5054911;27;102026;-69
2022/05/02 02:02:05;;;;;;;13.17;11.97;;;;;;;6.98;100.00;96388.50;5050917;27;105829;-69
2022/05/02 02:07:16;;;;;;;13.00;11.77;;;;;;;7.10;100.00;96391.94;5051258;27;105306;-69
2022/05/02 02:09:46;;;;;;;13.10;11.80;;;;;;;6.92;100.00;96384.13;5050748;27;105440;-69
2022/05/02 02:12:13;;;;;;;13.03;11.77;;;;;;;6.89;100.00;96387.19;5051396;27;102083;-69
2022/05/02 02:14:41;;;;;;;12.07;10.93;;;;;;;6.91;100.00;96387.78;5050876;27;104074;-69
2022/05/02 02:17:08;;;;;;;28.93;13.03;;;;;;;6.95;100.00;96384.47;5050466;27;105784;-69
2022/05/02 02:19:37;;;;;;;12.90;11.70;;;;;;;7.00;100.00;96391.72;5073177;27;101785;-69
2022/05/02 02:22:17;;;;;;;14.10;12.77;;;;;;;7.01;100.00;96398.59;5068830;27;101868;-69
2022/05/02 02:24:47;;;;;;;15.73;13.77;;;;;;;7.08;100.00;96394.81;5050922;27;101849;-69
2022/05/02 02:27:17;;;;;;;14.57;13.17;;;;;;;7.08;100.00;96394.00;5050860;27;105136;-69
2022/05/02 02:29:44;;;;;;;16.47;14.73;;;;;;;7.18;100.00;96400.34;5050701;27;105676;-69
2022/05/02 02:32:12;;;;;;;15.37;13.77;;;;;;;7.30;100.00;96401.16;5051105;27;101950;-69
2022/05/02 02:34:40;;;;;;;17.33;15.07;;;;;;;7.31;100.00;96400.13;5050894;27;105559;-69
2022/05/02 02:37:07;;;;;;;17.67;15.77;;;;;;;7.27;100.00;96398.19;5053686;27;104221;-69
2022/05/02 02:39:34;;;;;;;18.40;16.43;;;;;;;7.27;100.00;96392.88;5054567;27;101868;-69
2022/05/02 02:42:03;;;;;;;17.20;15.47;;;;;;;7.25;100.00;96398.41;5057602;27;105354;-69
2022/05/02 02:44:31;;;;;;;16.77;15.13;;;;;;;7.25;100.00;96394.97;5054313;27;102307;-69
2022/05/02 02:46:58;;;;;;;15.53;14.00;;;;;;;7.14;100.00;96399.19;5054397;27;105450;-69
2022/05/02 02:49:25;;;;;;;15.30;13.90;;;;;;;7.10;100.00;96397.25;5071210;27;105368;-69
2022/05/02 02:51:52;;;;;;;15.37;13.97;;;;;;;7.11;100.00;96394.38;5072831;27;101819;-69
2022/05/02 02:54:20;;;;;;;15.30;13.90;;;;;;;7.03;100.00;96396.56;5054189;27;105361;-69
2022/05/02 02:56:47;;;;;;;14.33;13.03;;;;;;;6.91;100.00;96387.78;5053464;27;105522;-69
2022/05/02 02:59:15;;;;;;;13.97;12.67;;;;;;;7.09;100.00;96393.00;5054490;27;101991;-69
2022/05/02 03:01:43;;;;;;;15.10;13.70;;;;;;;7.12;100.00;96390.69;5054215;27;104031;-69
2022/05/02 03:06:55;;;;;;;21.33;15.17;;;;;;;7.11;100.00;96390.91;5054043;27;105165;-69
2022/05/02 03:09:22;;;;;;;17.13;15.07;;;;;;;7.02;100.00;96387.81;5053266;27;105543;-69
2022/05/02 03:11:50;;;;;;;15.27;13.73;;;;;;;6.95;100.00;96383.66;5071025;27;101917;-69
2022/05/02 03:14:18;;;;;;;16.73;14.93;;;;;;;6.99;100.00;96387.47;5072834;27;102819;-69
2022/05/02 03:16:45;;;;;;;17.43;15.70;;;;;;;7.04;100.00;96383.06;5053272;27;106014;-69
2022/05/02 03:19:12;;;;;;;25.03;16.30;;;;;;;7.04;100.00;96382.28;5054081;27;101984;-69
2022/05/02 03:21:40;;;;;;;16.10;14.50;;;;;;;7.07;100.00;96385.28;5070536;27;105114;-69
2022/05/02 03:24:08;;;;;;;17.50;15.70;;;;;;;7.10;100.00;96391.94;5053321;27;105178;-69
2022/05/02 03:26:35;;;;;;;17.33;15.63;;;;;;;7.00;100.00;96381.94;5057099;27;101912;-69
2022/05/02 03:29:03;;;;;;;17.57;15.73;;;;;;;7.05;100.00;96378.63;5053229;27;105662;-69
2022/05/02 03:31:31;;;;;;;17.17;15.47;;;;;;;7.05;100.00;96374.13;5053801;27;102100;-69
2022/05/02 03:33:58;;;;;;;17.27;15.57;;;;;;;7.08;100.00;96372.84;5053654;27;105137;-69
2022/05/02 03:36:25;;;;;;;18.40;16.60;;;;;;;7.16;100.00;96369.88;5053213;27;105505;-69
2022/05/02 03:38:52;;;;;;;19.40;17.30;;;;;;;7.18;100.00;96373.91;5053479;27;101912;-69
2022/05/02 03:41:20;;;;;;;19.47;17.47;;;;;;;7.17;100.00;96367.03;5053422;27;105173;-69
2022/05/02 03:43:47;;;;;;;18.37;16.57;;;;;;;7.13;100.00;96370.31;5053108;27;105346;-69
2022/05/02 03:46:16;;;;;;;17.87;16.07;;;;;;;7.26;100.00;96378.06;5053231;27;102050;-69
2022/05/02 03:48:45;;;;;;;17.60;15.77;;;;;;;7.33;100.00;96371.63;5055237;27;105639;-69
2022/05/02 03:51:13;;;;;;;19.73;16.90;;;;;;;7.26;100.00;96375.41;5053008;27;101853;-69
2022/05/02 03:53:40;;;;;;;19.33;17.43;;;;;;;7.19;100.00;96372.09;5053311;27;105679;-69
2022/05/02 03:56:08;;;;;;;18.97;16.57;;;;;;;7.25;100.00;96373.81;5069882;27;104452;-69
2022/05/02 03:58:35;;;;;;;17.83;16.03;;;;;;;7.25;100.00;96368.50;5071701;27;101823;-69
2022/05/02 04:01:04;;;;;;;17.37;15.57;;;;;;;7.26;100.00;96370.91;5053209;27;105236;-69
2022/05/02 04:03:32;;;;;;;18.40;16.50;;;;;;;7.32;100.00;96371.84;5071478;27;103237;-69
2022/05/02 04:06:00;;;;;;;18.60;16.70;;;;;;;7.38;100.00;96374.38;5071637;27;102007;-69
2022/05/02 04:08:28;;;;;;;18.70;16.77;;;;;;;7.40;100.00;96360.91;5053055;27;105154;-69
2022/05/02 04:10:54;;;;;;;17.33;15.63;;;;;;;7.36;100.00;96357.13;5056160;27;105620;-69
2022/05/02 04:13:21;;;;;;;18.40;16.47;;;;;;;7.38;100.00;96358.50;5053065;27;105240;-69
2022/05/02 04:15:49;;;;;;;17.30;15.53;;;;;;;7.42;100.00;96361.50;5052525;27;105901;-69
2022/05/02 04:18:16;;;;;;;16.47;14.87;;;;;;;7.44;100.00;96359.41;5052569;27;101851;-69
2022/05/02 04:20:45;;;;;;;17.20;15.50;;;;;;;7.35;100.00;96358.13;5069861;27;105241;-69
2022/05/02 04:23:14;;;;;;;17.93;16.13;;;;;;;7.36;100.00;96355.28;5069483;27;105457;-69
2022/05/02 04:25:41;;;;;;;17.73;15.93;;;;;;;7.42;100.00;96356.19;5071521;27;101821;-69
2022/05/02 04:28:10;;;;;;;18.97;17.03;;;;;;;7.32;100.00;96353.34;5053049;27;105198;-69
2022/05/02 04:30:38;;;;;;;18.67;16.77;;;;;;;7.32;100.00;96359.41;5074447;27;103143;-69
2022/05/02 04:33:06;;;;;;;18.97;16.97;;;;;;;7.25;100.00;96358.72;5071629;27;102473;-69
2022/05/02 04:35:33;;;;;;;18.83;16.90;;;;;;;7.41;100.00;96362.53;5070926;27;103180;-69
2022/05/02 04:38:01;;;;;;;19.67;17.17;;;;;;;7.44;100.00;96356.75;5071059;27;101854;-69
2022/05/02 04:41:06;;;;;;;21.70;17.93;;;;;;;7.52;100.00;96361.72;5052669;27;106262;-73
2022/05/02 04:43:33;;;;;;;21.63;18.87;;;;;;;7.33;100.00;96360.22;5052465;27;105703;-69
2022/05/02 04:46:26;;;;;;;22.17;18.33;;;;;;;7.46;100.00;96359.97;5052840;27;101823;-69
2022/05/02 04:48:54;;;;;;;22.57;19.53;;;;;;;7.46;100.00;96358.16;5052929;27;105368;-69
2022/05/02 04:51:28;;;;;;;20.13;17.10;;;;;;;7.24;100.00;96364.22;5052164;27;104329;-69
2022/05/02 04:53:55;;;;;;;20.20;18.03;;;;;;;7.15;100.00;96363.00;5056159;27;101878;-69
2022/05/02 04:56:24;;;;;;;20.13;17.67;;;;;;;7.24;100.00;96364.22;5052204;27;105691;-69
2022/05/02 04:58:51;;;;;;;20.43;18.33;;;;;;;7.25;100.00;96371.16;5070445;27;101781;-69
2022/05/02 05:01:26;;;;;;;22.10;19.00;;;;;;;7.36;100.00;96373.00;5052551;27;105224;-69
2022/05/02 05:03:53;;;;;;;19.20;17.20;;;;;;;7.39;100.00;96378.63;5051924;27;106074;-69
2022/05/02 05:06:21;;;;;;;23.53;19.13;;;;;;;7.39;100.00;96369.88;5069455;27;101980;-69
2022/05/02 05:08:49;;;;;;;20.07;17.80;;;;;;;7.47;100.00;96372.19;5052356;27;105389;-69
2022/05/02 05:11:59;;;;;;;21.13;18.23;;;;;;;7.60;100.00;96370.09;5070115;27;103014;-69
2022/05/02 05:17:53;;;;;;;21.60;17.20;;;;;;;8.05;100.00;96370.22;5054765;27;103914;-69
2022/05/02 05:20:27;;;;;;;22.17;18.90;;;;;;;8.24;100.00;96374.38;5068596;27;101826;-69
2022/05/02 05:23:10;;;;;;;21.37;18.67;;;;;;;8.44;100.00;96364.13;5052133;27;105215;-69
2022/05/02 05:25:44;;;;;;;22.53;18.70;;;;;;;8.49;100.00;96367.69;5051665;27;105500;-69
2022/05/02 05:28:25;;;;;;;21.27;18.60;;;;;;;8.50;100.00;96361.34;5052119;27;101871;-69
2022/05/02 05:31:27;;;;;;;21.40;18.33;;;;;;;8.43;100.00;96365.16;5052255;27;105170;-69
2022/05/02 05:34:16;;;;;;;21.90;19.30;;;;;;;8.30;100.00;96354.88;5070026;27;102996;-69
2022/05/02 05:37:05;;;;;;;19.50;17.40;;;;;;;8.34;100.00;96363.97;5051637;27;101953;-69
2022/05/02 05:39:42;;;;;;;18.97;16.93;;;;;;;8.09;100.00;96356.31;5068487;27;105013;-69
2022/05/02 05:42:18;;;;;;;18.20;16.20;;;;;;;8.18;100.00;96359.38;5054785;27;104346;-69
2022/05/02 05:45:00;;;;;;;17.67;15.70;;;;;;;8.24;100.00;96369.06;5051429;27;105267;-69
2022/05/02 05:47:43;;;;;;;17.70;15.80;;;;;;;8.30;100.00;96360.97;5069406;27;102763;-69
2022/05/02 05:50:21;;;;;;;19.47;17.30;;;;;;;8.50;100.00;96368.50;5070152;27;101736;-69
2022/05/02 05:53:04;;;;;;;17.73;15.90;;;;;;;8.44;100.00;96357.00;5070028;27;102817;-69
2022/05/02 05:56:02;;;;;;;18.03;16.10;;;;;;;8.33;100.00;96363.16;5050641;27;105782;-69
2022/05/02 05:58:45;;;;;;;16.13;14.53;;;;;;;8.35;100.00;96350.47;5070178;27;102218;-69
2022/05/02 06:01:19;;;;;;;17.00;15.33;;;;;;;8.41;100.00;96354.81;5051568;27;105152;-69
2022/05/02 06:04:00;;;;;;;16.57;14.97;;;;;;;8.44;100.00;96353.53;5050503;27;105672;-69
2022/05/02 06:06:29;;;;;;;18.97;15.10;;;;;;;8.42;100.00;96351.13;5073486;27;101709;-69
2022/05/02 06:08:58;;;;;;;17.50;15.70;;;;;;;8.52;100.00;96353.16;5050654;27;105587;-69
2022/05/02 06:11:27;;;;;;;15.07;13.60;;;;;;;8.56;100.00;96349.00;5053263;27;101978;-69
2022/05/02 06:13:57;;;;;;;15.20;13.60;;;;;;;8.55;100.00;96336.75;5055022;27;105592;-69
2022/05/02 06:19:17;;;;;;;16.40;14.37;;;;;;;8.75;100.00;96350.38;5054794;27;101828;-69
2022/05/02 06:21:46;;;;;;;16.97;15.27;;;;;;;8.60;100.00;96336.84;5054306;27;105784;-69
2022/05/02 06:24:14;;;;;;;17.53;15.40;;;;;;;8.51;100.00;96343.59;5072730;27;102615;-69
2022/05/02 06:26:44;;;;;;;17.47;15.67;;;;;;;8.51;100.00;96352.34;5054765;27;101912;-69
2022/05/02 06:29:13;;;;;;;16.60;14.90;;;;;;;8.52;100.00;96338.06;5057922;27;104484;-69
2022/05/02 06:31:45;;;;;;;16.00;14.30;;;;;;;8.48;100.00;96342.22;5071706;27;101864;-69
2022/05/02 06:34:13;;;;;;;16.10;14.40;;;;;;;8.62;100.00;96334.78;5054359;27;105305;-69
2022/05/02 06:36:52;;;;;;;16.07;14.37;;;;;;;8.75;100.00;96335.28;5070999;27;105718;-69
2022/05/02 06:39:31;;;;;;;18.30;15.03;;;;;;;8.93;100.00;96336.88;5054541;27;101804;-69
2022/05/02 06:42:20;;;;;;;17.10;14.33;;;;;;;8.97;100.00;96330.06;5054487;27;105313;-69
2022/05/02 06:45:08;;;;;;;16.17;14.47;;;;;;;8.99;100.00;96330.63;5053621;27;105577;-69
2022/05/02 06:48:06;;;;;;;17.43;14.90;;;;;;;8.95;100.00;96330.28;5072802;27;102190;-69
2022/05/02 06:50:40;;;;;;;16.87;15.07;;;;;;;9.00;100.00;96329.59;5034449;27;105604;-69
2022/05/02 06:53:22;;;;;;;16.97;14.93;;;;;;;9.22;100.00;96335.75;5054296;27;101814;-69
2022/05/02 06:55:58;;;;;;;20.23;16.53;;;;;;;9.06;100.00;96325.97;5053941;27;105554;-69
2022/05/02 06:58:36;;;;;;;20.03;17.80;;;;;;;9.05;100.00;96329.66;5053736;27;105483;-69
2022/05/02 07:01:13;;;;;;;20.83;17.23;;;;;;;9.09;100.00;96328.13;5072753;27;101786;-69
2022/05/02 07:04:07;;;;;;;19.70;16.33;;;;;;;9.23;100.00;96326.75;5072684;27;102869;-69
2022/05/02 07:06:52;;;;;;;18.87;16.50;;;;;;;9.62;100.00;96320.41;5053445;27;105894;-69
2022/05/02 07:09:25;;;;;;;17.00;15.30;;;;;;;9.64;100.00;96308.50;5071001;27;101762;-69
2022/05/02 07:12:06;;;;;;;15.83;13.97;;;;;;;9.77;100.00;96315.28;5054193;27;105196;-69
2022/05/02 07:14:40;;;;;;;14.90;13.33;;;;;;;9.88;100.00;96317.03;5075529;27;103051;-69
2022/05/02 07:17:15;;;;;;;14.80;13.30;;;;;;;10.38;100.00;96320.28;5053244;27;105497;-69
2022/05/02 07:19:54;;;;;;;17.23;12.80;;;;;;;10.54;100.00;96320.19;5053240;27;105040;-69
2022/05/02 07:22:33;;;;;;;13.53;12.23;;;;;;;10.76;100.00;96312.94;5053431;27;101840;-69
2022/05/02 07:25:11;;;;;;;13.73;12.33;;;;;;;10.89;100.00;96314.34;5072402;27;102334;-69
2022/05/02 07:27:56;;;;;;;14.70;13.00;;;;;;;11.51;100.00;96316.13;5053044;27;105778;-69
2022/05/02 07:30:26;;;;;;;13.50;12.10;;;;;;;11.62;100.00;96317.03;5053460;27;101808;-72
2022/05/02 07:32:54;;;;;;;12.87;11.67;;;;;;;11.97;100.00;96298.53;5052026;27;105481;-72
2022/05/02 07:35:24;;;;;;;13.40;12.10;;;;;;;12.01;100.00;96308.44;5053151;27;105647;-72
2022/05/02 07:37:53;;;;;;;14.40;11.40;;;;;;;12.04;100.00;96305.25;5075584;27;101856;-72
2022/05/02 07:40:22;;;;;;;11.23;10.13;;;;;;;12.07;100.00;96307.41;5053104;27;103771;-72
2022/05/02 07:42:53;;;;;;;12.47;10.43;;;;;;;12.46;100.00;96307.75;5053259;27;102223;-73
2022/05/02 07:45:25;;;;;;;11.13;10.00;;;;;;;12.66;100.00;96307.81;5072250;27;102797;-73
2022/05/02 07:47:54;;;;;;;12.30;10.57;;;;;;;12.88;100.00;96301.16;5052794;27;105959;-72
2022/05/02 07:50:26;;;;;;;12.67;11.47;;;;;;;13.25;100.00;96300.91;5070471;27;101941;-72
2022/05/02 07:52:56;;;;;;;14.67;12.13;;;;;;;12.74;100.00;96305.41;5053475;27;105601;-72
2022/05/02 07:55:24;;;;;;;13.70;12.33;;;;;;;12.76;100.00;96305.16;5052681;27;106801;-72
2022/05/02 07:57:55;;;;;;;13.53;11.37;;;;;;;12.78;100.00;96303.00;5053321;27;101965;-72
2022/05/02 08:00:24;;;;;;;14.47;12.97;;;;;;;12.74;100.00;96299.25;5056442;27;105724;-72
2022/05/02 08:02:52;;;;;;;13.97;12.57;;;;;;;12.69;100.00;96304.59;5053222;27;101851;-72
2022/05/02 08:05:22;;;;;;;12.97;11.67;;;;;;;13.05;100.00;96300.91;5052953;27;104494;-72
2022/05/02 08:07:54;;;;;;;14.40;13.00;;;;;;;13.27;100.00;96301.44;5052538;27;106692;-72
2022/05/02 08:10:57;;;;;;;13.20;11.97;;;;;;;13.14;100.00;96299.31;5053237;27;101853;-72
2022/05/02 08:13:39;;;;;;;13.83;12.07;;;;;;;12.95;100.00;96293.69;5039717;27;105788;-72
2022/05/02 08:16:18;;;;;;;12.50;11.30;;;;;;;13.19;100.00;96301.97;5052538;27;104246;-72
2022/05/02 08:19:07;;;;;;;11.10;10.10;;;;;;;13.39;100.00;96301.94;5052963;27;102054;-73
2022/05/02 08:21:41;;;;;;;11.67;10.57;;;;;;;13.61;100.00;96299.75;5052541;27;104831;-72
2022/05/02 08:27:24;;;;;;;10.00;9.10;;;;;;;13.80;100.00;96304.25;5052308;27;105353;-73
2022/05/02 08:30:06;;;;;;;10.97;9.93;;;;;;;14.06;100.00;96297.72;5053093;27;105919;-72
2022/05/02 08:32:41;;;;;;;10.00;9.10;;;;;;;14.39;100.00;96293.59;5072319;27;101822;-72
2022/05/02 08:35:11;;;;;;;11.97;10.87;;;;;;;14.03;100.00;96297.50;5070448;27;104790;-72
2022/05/02 08:38:05;;;;;;;10.23;9.27;;;;;;;14.42;100.00;96295.72;5051952;27;106093;-72
2022/05/02 08:41:13;;;;;;;10.33;9.33;;;;;;;14.48;100.00;96299.97;5053669;27;101926;-72
2022/05/02 08:44:04;;;;;;;9.67;8.77;;;;;;;14.69;100.00;96296.09;5053474;27;105363;-72
2022/05/02 08:47:09;;;;;;;11.80;10.57;;;;;;;14.86;100.00;96283.09;5052729;27;105458;-72
2022/05/02 08:50:07;;;;;;;10.60;9.67;;;;;;;15.22;100.00;96282.56;5055640;27;102109;-72
2022/05/02 08:53:17;;;;;;;12.43;11.20;;;;;;;15.14;100.00;96293.88;5052722;27;105441;-73
2022/05/02 08:56:07;;;;;;;10.77;9.73;;;;;;;15.33;100.00;96291.31;5052458;27;101859;-73
2022/05/02 08:59:07;;;;;;;10.60;9.70;;;;;;;15.32;100.00;96287.81;5053100;27;104209;-73
2022/05/02 09:02:13;;;;;;;9.70;8.87;;;;;;;15.41;100.00;96278.13;5052660;27;105519;-73
2022/05/02 09:05:10;;;;;;;11.87;10.77;;;;;;;15.39;100.00;96279.47;5053049;27;101954;-73
2022/05/02 09:08:16;;;;;;;10.67;9.77;;;;;;;15.59;100.00;96285.41;5069344;27;105409;-73
2022/05/02 09:11:09;;;;;;;9.77;8.87;;;;;;;15.51;100.00;96287.94;5071261;27;102623;-73
2022/05/02 09:14:16;;;;;;;9.33;8.43;;;;;;;15.32;100.00;96290.47;5075313;27;102192;-73
2022/05/02 09:17:17;;;;;;;9.93;9.03;;;;;;;15.49;100.00;96290.09;5070890;27;102784;-72
2022/05/02 09:20:07;;;;;;;9.20;8.40;;;;;;;15.70;100.00;96288.81;5050298;27;103528;-72
2022/05/02 09:23:00;;;;;;;10.10;9.20;;;;;;;15.44;100.00;96287.47;5052802;27;103771;-73
2022/05/02 09:25:54;;;;;;;9.80;8.90;;;;;;;15.68;100.00;96289.09;5052215;27;105875;-73
2022/05/02 09:28:30;;;;;;;10.27;9.27;;;;;;;15.57;100.00;96284.91;5070979;27;101758;-77
2022/05/02 09:31:17;;;;;;;10.80;9.70;;;;;;;15.48;100.00;96289.28;5048297;27;103658;-72
2022/05/02 09:33:50;;;;;;;11.20;10.20;;;;;;;15.66;100.00;96279.72;5031613;27;105611;-74
2022/05/02 09:36:26;;;;;;;10.27;9.37;;;;;;;15.72;100.00;96284.75;5031276;27;101903;-72
2022/05/02 09:39:04;;;;;;;10.27;9.37;;;;;;;15.51;100.00;96282.56;5052005;27;105201;-72
2022/05/02 09:41:53;;;;;;;11.20;10.20;;;;;;;15.61;100.00;96282.47;5046383;27;102178;-72
2022/05/02 09:51:03;;;;;;;10.53;9.63;;;;;;;15.91;100.00;96276.78;5025954;27;101937;-72
2022/05/02 09:53:40;;;;;;;10.67;9.67;;;;;;;16.11;100.00;96281.88;5031879;27;104128;-72
2022/05/02 09:59:07;;;;;;;9.97;9.07;;;;;;;15.95;100.00;96275.09;5047968;27;102273;-72
2022/05/02 10:01:36;;;;;;;10.33;9.33;;;;;;;16.22;100.00;96267.25;5048947;27;104726;-71
2022/05/02 10:04:31;;;;;;;11.13;10.00;;;;;;;16.36;100.00;96268.16;5035062;27;105893;-71
2022/05/02 10:07:07;;;;;;;10.13;9.13;;;;;;;16.48;100.00;96268.53;5049328;27;102499;-69
2022/05/02 10:10:06;;;;;;;10.57;9.67;;;;;;;17.07;100.00;96264.13;5049662;27;103055;-69
2022/05/02 10:12:46;;;;;;;10.63;9.73;;;;;;;17.31;100.00;96261.31;5007669;28;101977;-69
2022/05/02 10:15:30;;;;;;;10.80;9.80;;;;;;;17.57;100.00;96257.09;5007648;28;102832;-70
2022/05/02 10:18:13;;;;;;;9.90;8.93;;;;;;;17.43;100.00;96261.69;4989915;28;105404;-69
2022/05/02 10:20:54;;;;;;;9.10;8.20;;;;;;;16.63;100.00;96249.53;4989926;28;102265;-69
2022/05/02 10:23:39;;;;;;;8.93;8.03;;;;;;;17.06;100.00;96248.31;4990311;28;105391;-69
2022/05/02 10:26:15;;;;;;;8.57;7.87;;;;;;;17.24;100.00;96252.84;4989702;28;105831;-70
2022/05/02 10:29:04;;;;;;;7.73;7.00;;;;;;;17.56;100.00;96239.38;4994078;28;102394;-70
2022/05/02 10:31:35;;;;;;;7.60;7.00;;;;;;;17.23;100.00;96232.44;4989898;28;105472;-70
2022/05/02 10:34:07;;;;;;;7.23;6.53;;;;;;;17.78;100.00;96244.88;5007104;28;102008;-70
2022/05/02 10:36:39;;;;;;;7.00;6.40;;;;;;;18.01;100.00;96243.88;5007449;28;102870;-70
2022/05/02 10:39:17;;;;;;;7.10;6.40;;;;;;;18.67;100.00;96234.09;4989557;28;105503;-69
2022/05/02 10:41:48;;;;;;;6.20;5.70;;;;;;;18.69;100.00;96231.09;5007676;28;101955;-70
2022/05/02 10:44:17;;;;;;;5.77;5.37;;;;;;;18.94;100.00;96233.97;4990627;28;104098;-70
2022/05/02 10:46:46;;;;;;;6.03;5.50;;;;;;;18.67;100.00;96235.97;5010029;27;105222;-70
2022/05/02 10:49:31;;;;;;;5.97;5.47;;;;;;;18.82;100.00;96225.66;5049601;27;101948;-70
2022/05/02 10:52:03;;;;;;;5.63;5.23;;;;;;;18.61;100.00;96231.81;5051096;27;105287;-70
2022/05/02 10:54:41;;;;;;;6.00;5.40;;;;;;;18.71;100.00;96227.00;5031701;27;101984;-70
2022/05/02 10:57:21;;;;;;;5.57;5.07;;;;;;;19.36;100.00;96219.22;5032949;27;105472;-70
2022/05/02 10:59:54;;;;;;;5.90;5.43;;;;;;;19.63;100.00;96213.63;5052387;27;102900;-70
2022/05/02 11:02:39;;;;;;;4.20;3.90;;;;;;;19.53;100.00;96219.28;5051797;27;102036;-70
2022/05/02 11:05:11;;;;;;;4.10;3.80;;;;;;;19.12;98.61;96221.44;5053018;27;104405;-70
2022/05/02 11:07:52;;;;;;;3.30;3.10;;;;;;;18.84;100.00;96222.63;5034342;27;105621;-70
2022/05/02 11:10:21;;;;;;;4.70;4.30;;;;;;;18.47;100.00;96218.38;5051374;27;101950;-70
2022/05/02 11:12:57;;;;;;;3.70;3.40;;;;;;;18.37;100.00;96218.59;5051889;27;105417;-70
2022/05/02 11:15:26;;;;;;;3.60;3.40;;;;;;;18.74;100.00;96212.13;5055597;27;101825;-70
2022/05/02 11:18:08;;;;;;;3.40;3.20;;;;;;;19.08;100.00;96204.28;5035013;27;105625;-70
2022/05/02 11:20:50;;;;;;;3.20;3.00;;;;;;;19.37;95.34;96210.00;5033167;27;105627;-70
2022/05/02 11:23:39;;;;;;;2.67;2.50;;;;;;;19.53;90.11;96205.81;5035065;27;102161;-70
2022/05/02 11:26:17;;;;;;;2.20;2.10;;;;;;;19.02;80.26;96200.13;5034549;27;105307;-70
2022/05/02 11:29:01;;;;;;;2.80;2.60;;;;;;;19.12;99.13;96191.78;5034361;27;105633;-70
2022/05/02 11:31:36;;;;;;;3.33;3.10;;;;;;;19.14;96.74;96195.72;5035798;27;102285;-70
2022/05/02 11:34:06;;;;;;;3.37;3.17;;;;;;;19.50;97.31;96199.13;5035705;27;105155;-70
2022/05/02 11:36:48;;;;;;;4.27;3.97;;;;;;;19.95;95.64;96191.66;5055813;27;104172;-70
2022/05/02 11:39:22;;;;;;;3.70;3.40;;;;;;;19.85;94.78;96189.25;5035065;27;105226;-70
2022/05/02 11:41:56;;;;;;;4.33;3.70;;;;;;;19.36;100.00;96198.44;5051966;27;104733;-70
2022/05/02 11:44:33;;;;;;;3.67;3.47;;;;;;;19.46;99.63;96189.28;5034842;27;101894;-70
2022/05/02 11:47:08;;;;;;;3.50;3.30;;;;;;;19.14;96.24;96178.78;5033848;27;105319;-70
2022/05/02 11:50:00;;;;;;;4.13;3.83;;;;;;;19.17;100.00;96180.84;5033287;27;105950;-70
2022/05/02 11:52:32;;;;;;;3.07;2.87;;;;;;;18.67;100.00;96176.72;5034154;27;101755;-70
2022/05/02 11:55:02;;;;;;;4.40;4.00;;;;;;;18.86;99.45;96182.72;5016993;27;105220;-70
2022/05/02 11:57:36;;;;;;;3.33;3.03;;;;;;;18.84;100.00;96174.13;5033160;27;107071;-70
2022/05/02 12:00:08;;;;;;;3.30;3.00;;;;;;;19.14;100.00;96173.38;5037224;27;102025;-70
2022/05/02 12:03:04;;;;;;;3.40;3.20;;;;;;;19.24;100.00;96173.94;5052019;27;103334;-70
2022/05/02 12:05:33;;;;;;;3.53;3.33;;;;;;;19.52;99.96;96167.22;5051004;27;101933;-70
2022/05/02 12:08:04;;;;;;;3.37;3.07;;;;;;;19.90;95.04;96165.59;5032891;27;104389;-70